createdAt,value
2023-01-27T00:07:27.344Z,21.80
2023-01-27T00:09:54.199Z,21.70
2023-01-27T00:12:41.618Z,21.60
2023-01-27T02:18:05.918Z,19.80
2023-01-27T02:20:46.818Z,18.40
2023-01-27T02:23:38.860Z,17.20
2023-01-27T02:26:22.504Z,18.60
2023-01-27T02:28:59.818Z,17.20
2023-01-27T02:31:27.990Z,19.40
2023-01-27T02:33:59.771Z,20.00
2023-01-27T02:36:27.587Z,18.50
2023-01-27T02:38:55.108Z,18.90
2023-01-27T02:41:42.474Z,17.70
2023-01-27T02:44:11.096Z,17.00
2023-01-27T02:46:38.510Z,17.30
2023-01-27T02:49:07.159Z,18.10
2023-01-27T02:51:36.394Z,18.40
2023-01-27T02:54:03.250Z,19.00
2023-01-27T02:56:30.341Z,17.80
2023-01-27T02:59:01.868Z,18.00
2023-01-27T03:01:34.232Z,18.70
2023-01-27T03:04:01.776Z,18.40
2023-01-27T03:06:33.201Z,17.10
2023-01-27T03:09:00.373Z,17.80
2023-01-27T03:11:46.092Z,18.50
2023-01-27T03:14:13.732Z,18.50
2023-01-27T03:16:59.403Z,18.90
2023-01-27T03:19:26.242Z,17.60
2023-01-27T03:21:53.510Z,18.40
2023-01-27T03:24:21.004Z,19.00
2023-01-27T03:26:48.559Z,18.60
2023-01-27T03:29:39.612Z,18.60
2023-01-27T03:32:06.905Z,18.10
2023-01-27T03:34:34.386Z,19.10
2023-01-27T03:37:27.758Z,18.90
2023-01-27T03:40:14.467Z,16.80
2023-01-27T03:42:59.623Z,19.10
2023-01-27T03:45:46.155Z,18.30
2023-01-27T03:48:13.986Z,17.70
2023-01-27T03:50:52.466Z,18.90
2023-01-27T03:53:20.165Z,17.90
2023-01-27T03:55:47.361Z,17.50
2023-01-27T03:58:18.877Z,16.20
2023-01-27T04:00:50.003Z,17.00
2023-01-27T04:03:35.280Z,17.70
2023-01-27T04:06:22.835Z,16.20
2023-01-27T04:08:49.922Z,16.20
2023-01-27T04:11:35.449Z,18.30
2023-01-27T04:14:05.349Z,17.60
2023-01-27T04:16:32.488Z,17.00
2023-01-27T04:18:59.350Z,18.70
2023-01-27T04:21:26.143Z,19.50
2023-01-27T04:23:53.220Z,18.80
2023-01-27T04:26:20.657Z,16.70
2023-01-27T04:28:48.288Z,18.30
2023-01-27T04:31:15.562Z,18.20
2023-01-27T04:33:43.173Z,16.50
2023-01-27T04:36:11.993Z,16.60
2023-01-27T04:38:38.905Z,17.10
2023-01-27T04:41:05.675Z,16.80
2023-01-27T04:43:32.592Z,18.40
2023-01-27T04:45:59.191Z,18.60
2023-01-27T04:48:26.922Z,16.70
2023-01-27T04:50:54.038Z,17.50
2023-01-27T04:53:20.726Z,16.70
2023-01-27T04:55:50.539Z,18.20
2023-01-27T04:58:17.799Z,18.40
2023-01-27T05:00:44.628Z,17.90
2023-01-27T05:03:13.491Z,17.60
2023-01-27T05:05:40.373Z,16.70
2023-01-27T05:08:09.460Z,17.20
2023-01-27T05:10:36.434Z,17.90
2023-01-27T05:13:03.257Z,17.60
2023-01-27T05:15:30.489Z,17.30
2023-01-27T05:17:57.262Z,16.10
2023-01-27T05:20:24.907Z,17.30
2023-01-27T05:23:12.012Z,19.10
2023-01-27T05:25:42.307Z,19.50
2023-01-27T05:28:08.990Z,19.00
2023-01-27T05:30:36.133Z,17.90
2023-01-27T05:33:03.043Z,19.40
2023-01-27T05:35:32.596Z,18.80
2023-01-27T05:37:59.438Z,18.20
2023-01-27T05:40:26.438Z,19.40
2023-01-27T05:42:54.355Z,19.60
2023-01-27T05:45:21.244Z,18.40
2023-01-27T20:01:59.395Z,24.10
2023-01-27T20:04:28.254Z,22.00
2023-01-27T20:06:56.599Z,21.70
2023-01-27T20:09:26.822Z,22.40
2023-01-27T20:11:55.011Z,21.90
2023-01-27T20:14:26.450Z,23.10
2023-01-27T20:16:55.242Z,24.60
2023-01-27T20:19:24.029Z,24.60
2023-01-27T20:21:54.132Z,22.10
2023-01-27T20:24:22.900Z,22.70
2023-01-27T20:26:52.666Z,23.50
2023-01-27T20:29:20.849Z,21.50
2023-01-27T20:31:49.824Z,22.60
2023-01-27T20:34:18.516Z,23.10
2023-01-27T20:36:47.152Z,21.80
2023-01-27T20:39:15.482Z,23.60
2023-01-27T20:41:45.499Z,22.60
2023-01-27T20:44:14.077Z,21.90
2023-01-27T20:46:42.875Z,21.70
2023-01-27T20:49:11.251Z,22.20
2023-01-27T20:51:39.529Z,21.80
2023-01-27T20:54:07.903Z,21.90
2023-01-27T20:56:36.147Z,21.00
2023-01-27T20:59:04.569Z,22.70
2023-01-27T21:01:33.439Z,21.80
2023-01-27T21:04:01.641Z,22.10
2023-01-27T21:06:30.214Z,23.00
2023-01-27T21:08:58.698Z,22.30
2023-01-27T21:11:27.506Z,22.30
2023-01-27T21:13:55.980Z,23.10
2023-01-27T21:16:24.261Z,24.80
2023-01-27T21:18:52.526Z,22.10
2023-01-27T21:21:22.148Z,21.90
2023-01-27T21:23:50.454Z,20.70
2023-01-27T21:26:18.704Z,20.60
2023-01-27T21:28:47.395Z,22.60
2023-01-27T21:31:17.270Z,22.80
2023-01-27T21:33:50.393Z,22.40
2023-01-27T21:38:50.563Z,20.90
2023-01-27T21:41:38.298Z,21.30
2023-01-27T21:44:25.660Z,23.60
2023-01-27T21:46:54.060Z,22.40
2023-01-27T21:49:22.549Z,23.90
2023-01-27T21:51:50.935Z,23.60
2023-01-27T21:54:19.259Z,21.40
2023-01-27T21:56:47.688Z,23.00
2023-01-27T21:59:15.985Z,21.10
2023-01-27T22:01:44.600Z,21.10
2023-01-27T22:04:12.798Z,23.00
